sensor_id;sensor_type;location;lat;lon;timestamp;P1;durP1;ratioP1;P2;durP2;ratioP2
17927;SDS011;9089;58.396;15.544;2022-10-16T00:00:26;5.55;;;4.15;;
17927;SDS011;9089;58.396;15.544;2022-10-16T00:02:52;4.97;;;3.90;;
17927;SDS011;9089;58.396;15.544;2022-10-16T00:05:17;5.40;;;3.78;;
17927;SDS011;9089;58.396;15.544;2022-10-16T00:07:42;4.05;;;3.75;;
17927;SDS011;9089;58.396;15.544;2022-10-16T00:10:08;4.20;;;3.80;;
17927;SDS011;9089;58.396;15.544;2022-10-16T00:12:35;3.92;;;3.53;;
17927;SDS011;9089;58.396;15.544;2022-10-16T00:15:00;5.05;;;3.75;;
17927;SDS011;9089;58.396;15.544;2022-10-16T00:17:26;4.22;;;3.83;;
17927;SDS011;9089;58.396;15.544;2022-10-16T00:19:52;5.47;;;3.90;;
17927;SDS011;9089;58.396;15.544;2022-10-16T00:22:17;6.10;;;3.85;;
17927;SDS011;9089;58.396;15.544;2022-10-16T00:24:42;4.38;;;3.97;;
17927;SDS011;9089;58.396;15.544;2022-10-16T00:27:08;4.90;;;3.85;;
17927;SDS011;9089;58.396;15.544;2022-10-16T00:29:35;5.28;;;3.80;;
17927;SDS011;9089;58.396;15.544;2022-10-16T00:32:00;7.03;;;3.47;;
17927;SDS011;9089;58.396;15.544;2022-10-16T00:34:26;4.10;;;3.50;;
17927;SDS011;9089;58.396;15.544;2022-10-16T00:36:51;4.40;;;4.00;;
17927;SDS011;9089;58.396;15.544;2022-10-16T00:39:16;4.63;;;3.30;;
17927;SDS011;9089;58.396;15.544;2022-10-16T00:41:42;3.83;;;3.45;;
17927;SDS011;9089;58.396;15.544;2022-10-16T00:46:49;5.80;;;3.53;;
17927;SDS011;9089;58.396;15.544;2022-10-16T00:49:15;4.65;;;3.63;;
17927;SDS011;9089;58.396;15.544;2022-10-16T00:51:42;3.78;;;3.47;;
17927;SDS011;9089;58.396;15.544;2022-10-16T00:54:09;4.72;;;3.40;;
17927;SDS011;9089;58.396;15.544;2022-10-16T00:56:35;6.38;;;3.97;;
17927;SDS011;9089;58.396;15.544;2022-10-16T00:59:01;4.63;;;3.60;;
17927;SDS011;9089;58.396;15.544;2022-10-16T01:01:28;3.72;;;3.42;;
17927;SDS011;9089;58.396;15.544;2022-10-16T01:03:55;4.60;;;3.40;;
17927;SDS011;9089;58.396;15.544;2022-10-16T01:06:24;4.30;;;3.90;;
17927;SDS011;9089;58.396;15.544;2022-10-16T01:08:57;7.75;;;4.43;;
17927;SDS011;9089;58.396;15.544;2022-10-16T01:11:27;4.97;;;4.47;;
17927;SDS011;9089;58.396;15.544;2022-10-16T01:13:55;7.53;;;4.82;;
17927;SDS011;9089;58.396;15.544;2022-10-16T01:16:25;5.47;;;4.78;;
17927;SDS011;9089;58.396;15.544;2022-10-16T01:18:54;4.65;;;3.85;;
17927;SDS011;9089;58.396;15.544;2022-10-16T01:21:24;4.95;;;3.70;;
17927;SDS011;9089;58.396;15.544;2022-10-16T01:23:55;5.80;;;4.32;;
17927;SDS011;9089;58.396;15.544;2022-10-16T01:26:26;4.93;;;4.18;;
17927;SDS011;9089;58.396;15.544;2022-10-16T01:29:00;4.70;;;4.30;;
17927;SDS011;9089;58.396;15.544;2022-10-16T01:31:29;4.20;;;3.80;;
17927;SDS011;9089;58.396;15.544;2022-10-16T01:33:57;6.80;;;4.93;;
17927;SDS011;9089;58.396;15.544;2022-10-16T01:36:25;4.63;;;4.00;;
17927;SDS011;9089;58.396;15.544;2022-10-16T01:38:52;5.68;;;4.00;;
17927;SDS011;9089;58.396;15.544;2022-10-16T01:41:20;5.88;;;3.95;;
17927;SDS011;9089;58.396;15.544;2022-10-16T01:43:51;5.78;;;3.80;;
17927;SDS011;9089;58.396;15.544;2022-10-16T01:46:20;4.18;;;3.78;;
17927;SDS011;9089;58.396;15.544;2022-10-16T01:48:46;5.07;;;4.57;;
17927;SDS011;9089;58.396;15.544;2022-10-16T01:51:12;4.47;;;4.07;;
17927;SDS011;9089;58.396;15.544;2022-10-16T01:53:38;5.60;;;3.75;;
17927;SDS011;9089;58.396;15.544;2022-10-16T01:56:05;5.53;;;3.85;;
17927;SDS011;9089;58.396;15.544;2022-10-16T01:58:32;5.15;;;4.00;;
17927;SDS011;9089;58.396;15.544;2022-10-16T02:00:59;6.80;;;4.03;;
17927;SDS011;9089;58.396;15.544;2022-10-16T02:03:28;5.25;;;3.80;;
17927;SDS011;9089;58.396;15.544;2022-10-16T02:05:54;4.80;;;4.22;;
17927;SDS011;9089;58.396;15.544;2022-10-16T02:08:20;6.20;;;4.35;;
17927;SDS011;9089;58.396;15.544;2022-10-16T02:10:46;4.97;;;3.53;;
17927;SDS011;9089;58.396;15.544;2022-10-16T02:13:12;6.22;;;4.25;;
17927;SDS011;9089;58.396;15.544;2022-10-16T02:15:38;4.85;;;3.65;;
17927;SDS011;9089;58.396;15.544;2022-10-16T02:18:04;5.05;;;4.00;;
17927;SDS011;9089;58.396;15.544;2022-10-16T02:20:32;4.15;;;3.63;;
17927;SDS011;9089;58.396;15.544;2022-10-16T02:22:59;4.90;;;4.07;;
17927;SDS011;9089;58.396;15.544;2022-10-16T02:25:26;4.75;;;4.03;;
17927;SDS011;9089;58.396;15.544;2022-10-16T02:27:55;5.40;;;4.38;;
17927;SDS011;9089;58.396;15.544;2022-10-16T02:30:23;4.30;;;3.97;;
17927;SDS011;9089;58.396;15.544;2022-10-16T02:32:51;4.72;;;4.22;;
17927;SDS011;9089;58.396;15.544;2022-10-16T02:35:17;4.95;;;4.25;;
17927;SDS011;9089;58.396;15.544;2022-10-16T02:37:45;5.28;;;4.13;;
17927;SDS011;9089;58.396;15.544;2022-10-16T02:40:11;5.68;;;4.22;;
17927;SDS011;9089;58.396;15.544;2022-10-16T02:42:38;5.22;;;4.32;;
17927;SDS011;9089;58.396;15.544;2022-10-16T02:45:05;5.65;;;4.22;;
17927;SDS011;9089;58.396;15.544;2022-10-16T02:47:30;5.22;;;4.72;;
17927;SDS011;9089;58.396;15.544;2022-10-16T02:49:56;5.45;;;4.93;;
17927;SDS011;9089;58.396;15.544;2022-10-16T02:52:21;5.35;;;4.85;;
17927;SDS011;9089;58.396;15.544;2022-10-16T02:54:48;6.90;;;5.40;;
17927;SDS011;9089;58.396;15.544;2022-10-16T02:57:13;6.30;;;4.80;;
17927;SDS011;9089;58.396;15.544;2022-10-16T02:59:39;6.32;;;4.78;;
17927;SDS011;9089;58.396;15.544;2022-10-16T03:02:05;5.68;;;4.80;;
17927;SDS011;9089;58.396;15.544;2022-10-16T03:04:30;8.57;;;5.18;;
17927;SDS011;9089;58.396;15.544;2022-10-16T03:06:56;6.35;;;5.47;;
17927;SDS011;9089;58.396;15.544;2022-10-16T03:09:21;6.25;;;5.43;;
17927;SDS011;9089;58.396;15.544;2022-10-16T03:11:48;5.30;;;4.80;;
17927;SDS011;9089;58.396;15.544;2022-10-16T03:14:14;5.47;;;4.95;;
17927;SDS011;9089;58.396;15.544;2022-10-16T03:16:39;6.78;;;5.47;;
17927;SDS011;9089;58.396;15.544;2022-10-16T03:19:04;6.57;;;5.97;;
17927;SDS011;9089;58.396;15.544;2022-10-16T03:21:30;7.35;;;4.78;;
17927;SDS011;9089;58.396;15.544;2022-10-16T03:23:56;6.13;;;5.55;;
17927;SDS011;9089;58.396;15.544;2022-10-16T03:26:21;6.53;;;5.35;;
17927;SDS011;9089;58.396;15.544;2022-10-16T03:28:48;6.35;;;4.93;;
17927;SDS011;9089;58.396;15.544;2022-10-16T03:31:13;8.00;;;5.38;;
17927;SDS011;9089;58.396;15.544;2022-10-16T03:33:39;7.75;;;5.28;;
17927;SDS011;9089;58.396;15.544;2022-10-16T03:36:04;6.32;;;4.93;;
17927;SDS011;9089;58.396;15.544;2022-10-16T03:38:30;6.93;;;5.40;;
17927;SDS011;9089;58.396;15.544;2022-10-16T03:40:55;7.05;;;5.47;;
17927;SDS011;9089;58.396;15.544;2022-10-16T03:43:21;7.30;;;5.43;;
17927;SDS011;9089;58.396;15.544;2022-10-16T03:45:49;6.05;;;5.45;;
17927;SDS011;9089;58.396;15.544;2022-10-16T03:48:14;6.78;;;5.70;;
17927;SDS011;9089;58.396;15.544;2022-10-16T03:50:40;6.93;;;5.05;;
17927;SDS011;9089;58.396;15.544;2022-10-16T03:53:06;8.52;;;5.47;;
17927;SDS011;9089;58.396;15.544;2022-10-16T03:55:31;5.82;;;4.95;;
17927;SDS011;9089;58.396;15.544;2022-10-16T03:57:57;5.82;;;5.32;;
17927;SDS011;9089;58.396;15.544;2022-10-16T04:00:22;5.72;;;5.13;;
17927;SDS011;9089;58.396;15.544;2022-10-16T04:02:49;6.15;;;5.22;;
17927;SDS011;9089;58.396;15.544;2022-10-16T04:05:15;6.20;;;5.60;;
17927;SDS011;9089;58.396;15.544;2022-10-16T04:07:40;7.10;;;5.70;;
17927;SDS011;9089;58.396;15.544;2022-10-16T04:10:06;8.57;;;5.90;;
17927;SDS011;9089;58.396;15.544;2022-10-16T04:12:31;6.57;;;5.95;;
17927;SDS011;9089;58.396;15.544;2022-10-16T04:14:57;7.97;;;6.00;;
17927;SDS011;9089;58.396;15.544;2022-10-16T04:17:22;6.47;;;5.72;;
17927;SDS011;9089;58.396;15.544;2022-10-16T04:19:49;8.60;;;6.05;;
17927;SDS011;9089;58.396;15.544;2022-10-16T04:22:15;6.90;;;6.10;;
17927;SDS011;9089;58.396;15.544;2022-10-16T04:24:40;7.65;;;6.35;;
17927;SDS011;9089;58.396;15.544;2022-10-16T04:27:05;9.35;;;6.10;;
17927;SDS011;9089;58.396;15.544;2022-10-16T04:29:31;8.95;;;6.15;;
17927;SDS011;9089;58.396;15.544;2022-10-16T04:31:56;8.48;;;6.32;;
17927;SDS011;9089;58.396;15.544;2022-10-16T04:34:22;8.65;;;6.32;;
17927;SDS011;9089;58.396;15.544;2022-10-16T04:36:49;7.82;;;6.10;;
17927;SDS011;9089;58.396;15.544;2022-10-16T04:39:14;7.22;;;5.50;;
17927;SDS011;9089;58.396;15.544;2022-10-16T04:41:40;7.03;;;5.80;;
17927;SDS011;9089;58.396;15.544;2022-10-16T04:44:05;9.70;;;5.47;;
17927;SDS011;9089;58.396;15.544;2022-10-16T04:46:31;8.55;;;6.45;;
17927;SDS011;9089;58.396;15.544;2022-10-16T04:48:56;6.47;;;5.75;;
17927;SDS011;9089;58.396;15.544;2022-10-16T04:51:22;8.93;;;5.80;;
17927;SDS011;9089;58.396;15.544;2022-10-16T04:53:48;9.02;;;5.75;;
17927;SDS011;9089;58.396;15.544;2022-10-16T04:56:14;7.28;;;5.65;;
17927;SDS011;9089;58.396;15.544;2022-10-16T04:58:40;7.78;;;5.90;;
17927;SDS011;9089;58.396;15.544;2022-10-16T05:01:06;6.65;;;5.78;;
17927;SDS011;9089;58.396;15.544;2022-10-16T05:03:31;6.30;;;5.70;;
17927;SDS011;9089;58.396;15.544;2022-10-16T05:05:57;8.95;;;6.07;;
17927;SDS011;9089;58.396;15.544;2022-10-16T05:08:22;6.70;;;5.38;;
17927;SDS011;9089;58.396;15.544;2022-10-16T05:10:49;7.03;;;5.38;;
17927;SDS011;9089;58.396;15.544;2022-10-16T05:13:14;8.02;;;5.72;;
17927;SDS011;9089;58.396;15.544;2022-10-16T05:15:40;6.70;;;5.95;;
17927;SDS011;9089;58.396;15.544;2022-10-16T05:18:05;7.00;;;5.70;;
17927;SDS011;9089;58.396;15.544;2022-10-16T05:20:31;7.07;;;5.55;;
17927;SDS011;9089;58.396;15.544;2022-10-16T05:22:56;10.30;;;6.00;;
17927;SDS011;9089;58.396;15.544;2022-10-16T05:25:22;7.25;;;5.93;;
17927;SDS011;9089;58.396;15.544;2022-10-16T05:27:49;7.40;;;5.65;;
17927;SDS011;9089;58.396;15.544;2022-10-16T05:30:14;7.13;;;5.60;;
17927;SDS011;9089;58.396;15.544;2022-10-16T05:32:40;7.70;;;5.78;;
17927;SDS011;9089;58.396;15.544;2022-10-16T05:35:06;7.50;;;5.55;;
17927;SDS011;9089;58.396;15.544;2022-10-16T05:37:32;8.65;;;5.80;;
17927;SDS011;9089;58.396;15.544;2022-10-16T05:39:58;6.75;;;5.45;;
17927;SDS011;9089;58.396;15.544;2022-10-16T05:42:23;9.40;;;6.18;;
17927;SDS011;9089;58.396;15.544;2022-10-16T05:44:50;6.63;;;5.90;;
17927;SDS011;9089;58.396;15.544;2022-10-16T05:47:15;6.72;;;6.03;;
17927;SDS011;9089;58.396;15.544;2022-10-16T05:49:41;6.97;;;6.35;;
17927;SDS011;9089;58.396;15.544;2022-10-16T05:52:06;7.97;;;5.68;;
17927;SDS011;9089;58.396;15.544;2022-10-16T05:54:32;9.18;;;6.20;;
17927;SDS011;9089;58.396;15.544;2022-10-16T05:56:57;8.25;;;5.63;;
17927;SDS011;9089;58.396;15.544;2022-10-16T05:59:23;6.97;;;5.30;;
17927;SDS011;9089;58.396;15.544;2022-10-16T06:01:50;6.25;;;5.47;;
17927;SDS011;9089;58.396;15.544;2022-10-16T06:04:15;7.07;;;5.53;;
17927;SDS011;9089;58.396;15.544;2022-10-16T06:06:40;7.55;;;5.78;;
17927;SDS011;9089;58.396;15.544;2022-10-16T06:09:06;7.78;;;5.60;;
17927;SDS011;9089;58.396;15.544;2022-10-16T06:11:32;6.05;;;5.40;;
17927;SDS011;9089;58.396;15.544;2022-10-16T06:13:58;6.80;;;6.20;;
17927;SDS011;9089;58.396;15.544;2022-10-16T06:16:24;7.03;;;5.93;;
17927;SDS011;9089;58.396;15.544;2022-10-16T06:18:51;9.45;;;6.10;;
17927;SDS011;9089;58.396;15.544;2022-10-16T06:21:17;7.47;;;6.03;;
17927;SDS011;9089;58.396;15.544;2022-10-16T06:23:43;6.28;;;5.65;;
17927;SDS011;9089;58.396;15.544;2022-10-16T06:26:09;6.80;;;5.63;;
17927;SDS011;9089;58.396;15.544;2022-10-16T06:28:35;5.82;;;5.28;;
17927;SDS011;9089;58.396;15.544;2022-10-16T06:31:00;6.07;;;5.10;;
17927;SDS011;9089;58.396;15.544;2022-10-16T06:33:26;6.15;;;5.57;;
17927;SDS011;9089;58.396;15.544;2022-10-16T06:35:53;10.13;;;5.00;;
17927;SDS011;9089;58.396;15.544;2022-10-16T06:38:19;5.43;;;4.78;;
17927;SDS011;9089;58.396;15.544;2022-10-16T06:40:44;6.97;;;5.00;;
17927;SDS011;9089;58.396;15.544;2022-10-16T06:43:10;8.05;;;4.70;;
17927;SDS011;9089;58.396;15.544;2022-10-16T06:45:35;6.43;;;4.80;;
17927;SDS011;9089;58.396;15.544;2022-10-16T06:48:01;7.22;;;4.50;;
17927;SDS011;9089;58.396;15.544;2022-10-16T06:50:26;5.95;;;4.45;;
17927;SDS011;9089;58.396;15.544;2022-10-16T06:52:53;5.35;;;4.78;;
17927;SDS011;9089;58.396;15.544;2022-10-16T06:55:18;6.35;;;4.25;;
17927;SDS011;9089;58.396;15.544;2022-10-16T06:57:44;8.00;;;4.72;;
17927;SDS011;9089;58.396;15.544;2022-10-16T07:00:11;5.80;;;3.75;;
17927;SDS011;9089;58.396;15.544;2022-10-16T07:02:37;9.02;;;4.90;;
17927;SDS011;9089;58.396;15.544;2022-10-16T07:05:02;10.20;;;4.38;;
17927;SDS011;9089;58.396;15.544;2022-10-16T07:07:28;6.55;;;4.65;;
17927;SDS011;9089;58.396;15.544;2022-10-16T07:09:55;5.55;;;4.93;;
17927;SDS011;9089;58.396;15.544;2022-10-16T07:12:20;7.28;;;5.22;;
17927;SDS011;9089;58.396;15.544;2022-10-16T07:14:46;7.57;;;5.00;;
17927;SDS011;9089;58.396;15.544;2022-10-16T07:17:11;5.88;;;4.75;;
17927;SDS011;9089;58.396;15.544;2022-10-16T07:19:37;5.50;;;4.60;;
17927;SDS011;9089;58.396;15.544;2022-10-16T07:22:02;5.45;;;3.83;;
17927;SDS011;9089;58.396;15.544;2022-10-16T07:24:28;5.60;;;4.10;;
17927;SDS011;9089;58.396;15.544;2022-10-16T07:26:55;5.13;;;3.72;;
17927;SDS011;9089;58.396;15.544;2022-10-16T07:29:21;7.97;;;4.18;;
17927;SDS011;9089;58.396;15.544;2022-10-16T07:31:46;4.63;;;3.45;;
17927;SDS011;9089;58.396;15.544;2022-10-16T07:34:13;8.15;;;3.92;;
17927;SDS011;9089;58.396;15.544;2022-10-16T07:36:39;6.88;;;3.72;;
17927;SDS011;9089;58.396;15.544;2022-10-16T07:39:04;5.30;;;3.35;;
17927;SDS011;9089;58.396;15.544;2022-10-16T07:41:30;4.75;;;3.38;;
17927;SDS011;9089;58.396;15.544;2022-10-16T07:43:59;9.43;;;4.10;;
17927;SDS011;9089;58.396;15.544;2022-10-16T07:46:25;4.65;;;3.85;;
17927;SDS011;9089;58.396;15.544;2022-10-16T07:48:51;8.75;;;4.13;;
17927;SDS011;9089;58.396;15.544;2022-10-16T07:51:18;5.20;;;3.72;;
17927;SDS011;9089;58.396;15.544;2022-10-16T07:53:44;6.22;;;3.95;;
17927;SDS011;9089;58.396;15.544;2022-10-16T07:56:09;5.55;;;3.33;;
17927;SDS011;9089;58.396;15.544;2022-10-16T07:58:35;6.53;;;3.40;;
17927;SDS011;9089;58.396;15.544;2022-10-16T08:01:04;6.72;;;3.45;;
17927;SDS011;9089;58.396;15.544;2022-10-16T08:03:30;3.90;;;3.40;;
17927;SDS011;9089;58.396;15.544;2022-10-16T08:05:56;8.30;;;3.50;;
17927;SDS011;9089;58.396;15.544;2022-10-16T08:08:22;4.63;;;3.00;;
17927;SDS011;9089;58.396;15.544;2022-10-16T08:10:47;4.63;;;3.25;;
17927;SDS011;9089;58.396;15.544;2022-10-16T08:13:12;3.95;;;3.30;;
17927;SDS011;9089;58.396;15.544;2022-10-16T08:15:40;6.15;;;3.22;;
17927;SDS011;9089;58.396;15.544;2022-10-16T08:18:06;5.75;;;2.70;;
17927;SDS011;9089;58.396;15.544;2022-10-16T08:20:32;5.13;;;3.25;;
17927;SDS011;9089;58.396;15.544;2022-10-16T08:22:58;5.65;;;3.17;;
17927;SDS011;9089;58.396;15.544;2022-10-16T08:25:23;4.88;;;3.40;;
17927;SDS011;9089;58.396;15.544;2022-10-16T08:27:49;3.67;;;3.00;;
17927;SDS011;9089;58.396;15.544;2022-10-16T08:30:15;6.63;;;2.97;;
17927;SDS011;9089;58.396;15.544;2022-10-16T08:32:40;7.10;;;3.47;;
17927;SDS011;9089;58.396;15.544;2022-10-16T08:35:08;6.15;;;3.65;;
17927;SDS011;9089;58.396;15.544;2022-10-16T08:37:34;6.82;;;3.53;;
17927;SDS011;9089;58.396;15.544;2022-10-16T08:40:00;8.07;;;3.05;;
17927;SDS011;9089;58.396;15.544;2022-10-16T08:42:29;5.70;;;3.40;;
17927;SDS011;9089;58.396;15.544;2022-10-16T08:47:56;6.20;;;3.35;;
17927;SDS011;9089;58.396;15.544;2022-10-16T08:50:26;7.82;;;2.75;;
17927;SDS011;9089;58.396;15.544;2022-10-16T08:52:53;3.45;;;2.78;;
17927;SDS011;9089;58.396;15.544;2022-10-16T08:55:29;3.20;;;2.90;;
17927;SDS011;9089;58.396;15.544;2022-10-16T08:57:55;5.25;;;3.08;;
17927;SDS011;9089;58.396;15.544;2022-10-16T09:00:21;4.97;;;2.85;;
17927;SDS011;9089;58.396;15.544;2022-10-16T09:02:49;3.65;;;3.08;;
17927;SDS011;9089;58.396;15.544;2022-10-16T09:05:23;4.55;;;3.22;;
17927;SDS011;9089;58.396;15.544;2022-10-16T09:07:59;4.05;;;2.50;;
17927;SDS011;9089;58.396;15.544;2022-10-16T09:10:29;3.78;;;2.50;;
17927;SDS011;9089;58.396;15.544;2022-10-16T09:13:00;6.18;;;2.70;;
17927;SDS011;9089;58.396;15.544;2022-10-16T09:15:29;3.70;;;2.50;;
17927;SDS011;9089;58.396;15.544;2022-10-16T09:17:59;4.18;;;2.80;;
17927;SDS011;9089;58.396;15.544;2022-10-16T09:20:27;4.70;;;2.13;;
17927;SDS011;9089;58.396;15.544;2022-10-16T09:25:25;3.95;;;2.45;;
17927;SDS011;9089;58.396;15.544;2022-10-16T09:27:52;5.47;;;2.50;;
17927;SDS011;9089;58.396;15.544;2022-10-16T09:30:18;3.38;;;2.15;;
17927;SDS011;9089;58.396;15.544;2022-10-16T09:32:46;6.15;;;2.65;;
17927;SDS011;9089;58.396;15.544;2022-10-16T09:35:13;3.88;;;2.40;;
17927;SDS011;9089;58.396;15.544;2022-10-16T09:37:39;4.72;;;2.60;;
17927;SDS011;9089;58.396;15.544;2022-10-16T09:40:06;5.57;;;2.47;;
17927;SDS011;9089;58.396;15.544;2022-10-16T09:42:33;3.78;;;2.50;;
17927;SDS011;9089;58.396;15.544;2022-10-16T09:44:59;3.17;;;2.10;;
17927;SDS011;9089;58.396;15.544;2022-10-16T09:47:25;3.90;;;1.98;;
17927;SDS011;9089;58.396;15.544;2022-10-16T09:49:51;4.60;;;2.30;;
17927;SDS011;9089;58.396;15.544;2022-10-16T09:52:18;4.35;;;2.17;;
17927;SDS011;9089;58.396;15.544;2022-10-16T09:54:48;3.22;;;2.25;;
17927;SDS011;9089;58.396;15.544;2022-10-16T09:57:14;5.05;;;1.95;;
17927;SDS011;9089;58.396;15.544;2022-10-16T09:59:46;4.40;;;1.90;;
17927;SDS011;9089;58.396;15.544;2022-10-16T10:02:13;2.90;;;1.92;;
17927;SDS011;9089;58.396;15.544;2022-10-16T10:04:40;5.13;;;1.85;;
17927;SDS011;9089;58.396;15.544;2022-10-16T10:07:06;4.10;;;1.65;;
17927;SDS011;9089;58.396;15.544;2022-10-16T10:09:32;3.78;;;2.15;;
17927;SDS011;9089;58.396;15.544;2022-10-16T10:12:00;3.70;;;2.45;;
17927;SDS011;9089;58.396;15.544;2022-10-16T10:14:28;7.22;;;2.20;;
17927;SDS011;9089;58.396;15.544;2022-10-16T10:17:13;5.07;;;2.00;;
17927;SDS011;9089;58.396;15.544;2022-10-16T10:19:39;7.68;;;2.17;;
17927;SDS011;9089;58.396;15.544;2022-10-16T10:22:13;4.57;;;2.22;;
17927;SDS011;9089;58.396;15.544;2022-10-16T10:24:39;6.07;;;2.22;;
17927;SDS011;9089;58.396;15.544;2022-10-16T10:27:06;3.70;;;2.03;;
17927;SDS011;9089;58.396;15.544;2022-10-16T10:29:37;3.55;;;1.80;;
17927;SDS011;9089;58.396;15.544;2022-10-16T10:32:09;4.55;;;1.70;;
17927;SDS011;9089;58.396;15.544;2022-10-16T10:34:42;4.93;;;1.60;;
17927;SDS011;9089;58.396;15.544;2022-10-16T10:37:12;3.83;;;1.98;;
17927;SDS011;9089;58.396;15.544;2022-10-16T10:39:41;4.32;;;2.05;;
17927;SDS011;9089;58.396;15.544;2022-10-16T10:42:11;4.95;;;1.90;;
17927;SDS011;9089;58.396;15.544;2022-10-16T10:44:50;4.15;;;1.77;;
17927;SDS011;9089;58.396;15.544;2022-10-16T10:47:18;8.27;;;2.30;;
17927;SDS011;9089;58.396;15.544;2022-10-16T10:49:52;1.77;;;1.50;;
17927;SDS011;9089;58.396;15.544;2022-10-16T10:52:30;5.07;;;1.88;;
17927;SDS011;9089;58.396;15.544;2022-10-16T10:55:00;3.15;;;1.60;;
17927;SDS011;9089;58.396;15.544;2022-10-16T10:57:31;2.60;;;1.63;;
17927;SDS011;9089;58.396;15.544;2022-10-16T11:00:03;2.72;;;1.63;;
17927;SDS011;9089;58.396;15.544;2022-10-16T11:02:33;5.95;;;1.48;;
17927;SDS011;9089;58.396;15.544;2022-10-16T11:07:47;4.22;;;1.80;;
17927;SDS011;9089;58.396;15.544;2022-10-16T11:10:15;2.30;;;1.55;;
17927;SDS011;9089;58.396;15.544;2022-10-16T11:12:42;3.53;;;1.58;;
17927;SDS011;9089;58.396;15.544;2022-10-16T11:15:11;4.13;;;1.48;;
17927;SDS011;9089;58.396;15.544;2022-10-16T11:17:39;4.40;;;1.60;;
17927;SDS011;9089;58.396;15.544;2022-10-16T11:20:12;3.45;;;1.50;;
17927;SDS011;9089;58.396;15.544;2022-10-16T11:22:39;5.97;;;2.15;;
17927;SDS011;9089;58.396;15.544;2022-10-16T11:25:11;3.55;;;1.45;;
17927;SDS011;9089;58.396;15.544;2022-10-16T11:27:40;5.38;;;1.75;;
17927;SDS011;9089;58.396;15.544;2022-10-16T11:30:08;5.45;;;1.50;;
17927;SDS011;9089;58.396;15.544;2022-10-16T11:32:40;4.28;;;1.50;;
17927;SDS011;9089;58.396;15.544;2022-10-16T11:35:08;4.07;;;1.52;;
17927;SDS011;9089;58.396;15.544;2022-10-16T11:37:38;3.88;;;1.58;;
17927;SDS011;9089;58.396;15.544;2022-10-16T11:40:10;3.50;;;1.40;;
17927;SDS011;9089;58.396;15.544;2022-10-16T11:42:41;4.50;;;1.52;;
17927;SDS011;9089;58.396;15.544;2022-10-16T11:45:13;6.22;;;1.50;;
17927;SDS011;9089;58.396;15.544;2022-10-16T11:47:41;5.05;;;1.58;;
17927;SDS011;9089;58.396;15.544;2022-10-16T11:50:10;5.78;;;1.58;;
17927;SDS011;9089;58.396;15.544;2022-10-16T11:52:40;6.53;;;1.92;;
17927;SDS011;9089;58.396;15.544;2022-10-16T11:55:14;5.35;;;1.67;;
17927;SDS011;9089;58.396;15.544;2022-10-16T11:57:42;7.95;;;1.77;;
17927;SDS011;9089;58.396;15.544;2022-10-16T12:00:09;5.55;;;1.30;;
17927;SDS011;9089;58.396;15.544;2022-10-16T12:02:46;4.03;;;1.25;;
17927;SDS011;9089;58.396;15.544;2022-10-16T12:05:16;4.28;;;1.40;;
17927;SDS011;9089;58.396;15.544;2022-10-16T12:07:46;4.57;;;1.17;;
17927;SDS011;9089;58.396;15.544;2022-10-16T12:10:20;5.82;;;1.50;;
17927;SDS011;9089;58.396;15.544;2022-10-16T12:12:46;6.20;;;1.67;;
17927;SDS011;9089;58.396;15.544;2022-10-16T12:15:18;3.97;;;1.20;;
17927;SDS011;9089;58.396;15.544;2022-10-16T12:17:44;3.33;;;1.25;;
17927;SDS011;9089;58.396;15.544;2022-10-16T12:20:18;3.58;;;1.05;;
17927;SDS011;9089;58.396;15.544;2022-10-16T12:22:47;4.93;;;1.60;;
17927;SDS011;9089;58.396;15.544;2022-10-16T12:25:20;7.20;;;1.30;;
17927;SDS011;9089;58.396;15.544;2022-10-16T12:27:53;3.85;;;1.38;;
17927;SDS011;9089;58.396;15.544;2022-10-16T12:30:20;4.07;;;1.40;;
17927;SDS011;9089;58.396;15.544;2022-10-16T12:32:52;4.25;;;1.60;;
17927;SDS011;9089;58.396;15.544;2022-10-16T12:35:19;3.20;;;1.08;;
17927;SDS011;9089;58.396;15.544;2022-10-16T12:37:45;5.03;;;1.42;;
17927;SDS011;9089;58.396;15.544;2022-10-16T12:40:11;6.78;;;1.95;;
17927;SDS011;9089;58.396;15.544;2022-10-16T12:42:39;4.68;;;1.40;;
17927;SDS011;9089;58.396;15.544;2022-10-16T12:45:21;2.75;;;1.38;;
17927;SDS011;9089;58.396;15.544;2022-10-16T12:47:49;4.20;;;1.30;;
17927;SDS011;9089;58.396;15.544;2022-10-16T12:50:28;5.35;;;1.45;;
17927;SDS011;9089;58.396;15.544;2022-10-16T12:52:56;4.15;;;1.27;;
17927;SDS011;9089;58.396;15.544;2022-10-16T12:55:21;6.20;;;1.77;;
17927;SDS011;9089;58.396;15.544;2022-10-16T12:57:55;7.78;;;1.88;;
17927;SDS011;9089;58.396;15.544;2022-10-16T13:00:24;6.63;;;1.52;;
17927;SDS011;9089;58.396;15.544;2022-10-16T13:05:35;5.40;;;1.23;;
17927;SDS011;9089;58.396;15.544;2022-10-16T13:08:07;2.83;;;1.42;;
17927;SDS011;9089;58.396;15.544;2022-10-16T13:10:38;5.10;;;1.60;;
17927;SDS011;9089;58.396;15.544;2022-10-16T13:13:16;4.63;;;1.92;;
17927;SDS011;9089;58.396;15.544;2022-10-16T13:15:50;5.20;;;1.40;;
17927;SDS011;9089;58.396;15.544;2022-10-16T13:18:19;6.75;;;1.80;;
17927;SDS011;9089;58.396;15.544;2022-10-16T13:20:51;6.63;;;1.70;;
17927;SDS011;9089;58.396;15.544;2022-10-16T13:23:21;4.50;;;1.70;;
17927;SDS011;9089;58.396;15.544;2022-10-16T13:25:55;6.38;;;1.70;;
17927;SDS011;9089;58.396;15.544;2022-10-16T13:28:28;10.25;;;1.65;;
17927;SDS011;9089;58.396;15.544;2022-10-16T13:30:55;3.65;;;1.50;;
17927;SDS011;9089;58.396;15.544;2022-10-16T13:33:24;5.05;;;1.52;;
17927;SDS011;9089;58.396;15.544;2022-10-16T13:35:52;3.38;;;1.30;;
17927;SDS011;9089;58.396;15.544;2022-10-16T13:38:19;2.72;;;1.20;;
17927;SDS011;9089;58.396;15.544;2022-10-16T13:40:48;4.55;;;1.17;;
17927;SDS011;9089;58.396;15.544;2022-10-16T13:43:14;4.63;;;1.23;;
17927;SDS011;9089;58.396;15.544;2022-10-16T13:45:41;4.22;;;1.30;;
17927;SDS011;9089;58.396;15.544;2022-10-16T13:48:17;4.85;;;1.42;;
17927;SDS011;9089;58.396;15.544;2022-10-16T13:50:43;3.40;;;1.02;;
17927;SDS011;9089;58.396;15.544;2022-10-16T13:53:10;4.35;;;1.30;;
17927;SDS011;9089;58.396;15.544;2022-10-16T13:55:37;4.22;;;1.30;;
17927;SDS011;9089;58.396;15.544;2022-10-16T13:58:07;5.35;;;1.23;;
17927;SDS011;9089;58.396;15.544;2022-10-16T14:00:33;2.00;;;1.00;;
17927;SDS011;9089;58.396;15.544;2022-10-16T14:03:00;1.40;;;0.82;;
17927;SDS011;9089;58.396;15.544;2022-10-16T14:05:27;2.67;;;0.80;;
17927;SDS011;9089;58.396;15.544;2022-10-16T14:07:52;1.30;;;0.70;;
17927;SDS011;9089;58.396;15.544;2022-10-16T14:10:20;1.80;;;0.60;;
17927;SDS011;9089;58.396;15.544;2022-10-16T14:12:53;1.48;;;0.70;;
17927;SDS011;9089;58.396;15.544;2022-10-16T14:15:19;0.70;;;0.47;;
17927;SDS011;9089;58.396;15.544;2022-10-16T14:17:44;2.13;;;0.60;;
17927;SDS011;9089;58.396;15.544;2022-10-16T14:20:14;2.95;;;0.95;;
17927;SDS011;9089;58.396;15.544;2022-10-16T14:22:41;2.72;;;0.73;;
17927;SDS011;9089;58.396;15.544;2022-10-16T14:25:19;1.98;;;0.80;;
17927;SDS011;9089;58.396;15.544;2022-10-16T14:27:45;2.08;;;0.75;;
17927;SDS011;9089;58.396;15.544;2022-10-16T14:30:21;1.35;;;0.70;;
17927;SDS011;9089;58.396;15.544;2022-10-16T14:32:54;3.13;;;0.82;;
17927;SDS011;9089;58.396;15.544;2022-10-16T14:35:26;3.40;;;0.95;;
17927;SDS011;9089;58.396;15.544;2022-10-16T14:37:52;5.15;;;1.27;;
17927;SDS011;9089;58.396;15.544;2022-10-16T14:40:18;3.28;;;1.23;;
17927;SDS011;9089;58.396;15.544;2022-10-16T14:42:43;3.45;;;0.90;;
17927;SDS011;9089;58.396;15.544;2022-10-16T14:45:09;4.13;;;0.77;;
17927;SDS011;9089;58.396;15.544;2022-10-16T14:47:35;2.38;;;0.50;;
17927;SDS011;9089;58.396;15.544;2022-10-16T14:50:02;1.38;;;0.65;;
17927;SDS011;9089;58.396;15.544;2022-10-16T14:52:29;3.45;;;0.60;;
17927;SDS011;9089;58.396;15.544;2022-10-16T14:54:54;2.42;;;0.57;;
17927;SDS011;9089;58.396;15.544;2022-10-16T14:57:22;1.85;;;0.60;;
17927;SDS011;9089;58.396;15.544;2022-10-16T14:59:48;1.13;;;0.60;;
17927;SDS011;9089;58.396;15.544;2022-10-16T15:02:16;0.95;;;0.50;;